createdAt,value
2023-02-05T00:00:39.415Z,2.82
2023-02-05T00:03:08.232Z,2.74
2023-02-05T00:05:36.921Z,2.65
2023-02-05T00:08:05.801Z,2.68
2023-02-05T00:10:34.620Z,2.73
2023-02-05T00:13:03.582Z,2.73
2023-02-05T00:15:32.456Z,2.74
2023-02-05T00:18:03.296Z,2.70
2023-02-05T00:20:32.890Z,2.64
2023-02-05T00:23:02.451Z,2.60
2023-02-05T00:25:33.544Z,2.58
2023-02-05T00:28:02.574Z,2.58
2023-02-05T00:30:32.349Z,2.61
2023-02-05T00:33:02.433Z,2.55
2023-02-05T00:35:31.044Z,2.47
2023-02-05T00:38:00.710Z,2.42
2023-02-05T00:40:29.231Z,2.44
2023-02-05T00:42:57.808Z,2.46
2023-02-05T00:45:26.549Z,2.44
2023-02-05T00:47:55.132Z,2.44
2023-02-05T00:50:25.320Z,2.40
2023-02-05T00:52:53.890Z,2.38
2023-02-05T00:55:23.634Z,2.44
2023-02-05T00:57:52.429Z,2.38
2023-02-05T01:00:21.861Z,2.35
2023-02-05T01:02:50.566Z,2.34
2023-02-05T01:05:19.666Z,2.29
2023-02-05T01:07:49.832Z,2.30
2023-02-05T01:10:18.399Z,2.25
2023-02-05T01:12:47.083Z,2.26
2023-02-05T01:15:15.738Z,2.25
2023-02-05T01:17:44.507Z,2.22
2023-02-05T01:20:14.499Z,2.13
2023-02-05T01:22:44.704Z,2.09
2023-02-05T01:25:14.922Z,2.07
2023-02-05T01:27:44.699Z,2.10
2023-02-05T01:30:14.083Z,2.12
2023-02-05T01:32:42.661Z,2.14
2023-02-05T01:35:11.592Z,2.02
2023-02-05T01:37:40.483Z,1.87
2023-02-05T01:40:09.652Z,1.93
2023-02-05T01:42:39.736Z,1.99
2023-02-05T01:45:54.166Z,1.92
2023-02-05T01:48:26.510Z,1.81
2023-02-05T01:51:01.620Z,1.65
2023-02-05T01:53:33.239Z,1.66
2023-02-05T01:56:04.724Z,1.66
2023-02-05T01:58:42.793Z,1.63
2023-02-05T02:01:11.380Z,1.59
2023-02-05T02:03:42.252Z,1.58
2023-02-05T02:06:11.016Z,1.56
2023-02-05T02:08:39.561Z,1.38
2023-02-05T02:11:10.661Z,1.32
2023-02-05T02:13:43.164Z,1.33
2023-02-05T02:16:13.017Z,1.31
2023-02-05T02:18:42.239Z,1.29
2023-02-05T02:21:42.770Z,1.27
2023-02-05T02:24:44.800Z,1.20
2023-02-05T02:27:38.232Z,1.24
2023-02-05T02:30:15.896Z,1.34
2023-02-05T02:32:50.169Z,1.36
2023-02-05T02:35:26.848Z,1.25
2023-02-05T02:38:03.495Z,1.23
2023-02-05T02:40:37.732Z,1.27
2023-02-05T02:43:12.151Z,1.23
2023-02-05T02:45:49.437Z,1.30
2023-02-05T02:48:22.188Z,1.09
2023-02-05T02:50:55.725Z,0.94
2023-02-05T02:53:28.295Z,0.77
2023-02-05T02:55:58.635Z,0.68
2023-02-05T02:58:33.053Z,0.65
2023-02-05T03:01:06.235Z,0.62
2023-02-05T03:03:39.907Z,0.59
2023-02-05T03:06:11.368Z,0.66
2023-02-05T03:08:47.367Z,0.83
2023-02-05T03:11:17.699Z,0.93
2023-02-05T03:13:48.042Z,1.00
2023-02-05T03:16:20.433Z,0.98
2023-02-05T03:18:50.531Z,0.96
2023-02-05T03:21:24.368Z,0.88
2023-02-05T03:23:53.269Z,0.87
2023-02-05T03:26:30.324Z,0.85
2023-02-05T03:29:02.246Z,0.73
2023-02-05T03:31:42.285Z,0.54
2023-02-05T03:34:21.521Z,0.55
2023-02-05T03:37:02.296Z,0.59
2023-02-05T03:39:43.878Z,0.62
2023-02-05T03:42:23.071Z,0.51
2023-02-05T03:45:29.982Z,0.35
2023-02-05T03:48:14.858Z,0.47
2023-02-05T03:50:51.700Z,0.57
2023-02-05T03:53:27.890Z,0.68
2023-02-05T03:56:05.566Z,0.70
2023-02-05T03:58:41.687Z,0.72
2023-02-05T04:01:11.941Z,0.70
2023-02-05T04:03:42.230Z,0.67
2023-02-05T04:06:10.799Z,0.63
2023-02-05T04:08:40.450Z,0.64
2023-02-05T04:11:09.908Z,0.66
2023-02-05T04:13:39.808Z,0.66
2023-02-05T04:16:08.445Z,0.68
2023-02-05T04:18:39.446Z,0.61
2023-02-05T04:21:09.530Z,0.63
2023-02-05T04:23:38.081Z,0.64
2023-02-05T04:26:06.788Z,0.61
2023-02-05T04:28:36.640Z,0.60
2023-02-05T04:31:09.894Z,0.58
2023-02-05T04:33:40.996Z,0.60
2023-02-05T04:36:11.609Z,0.58
2023-02-05T04:38:41.886Z,0.58
2023-02-05T04:41:10.625Z,0.57
2023-02-05T04:43:41.274Z,0.49
2023-02-05T04:46:13.714Z,0.46
2023-02-05T04:48:42.242Z,0.43
2023-02-05T04:51:15.495Z,0.42
2023-02-05T04:53:44.196Z,0.39
2023-02-05T04:56:15.215Z,0.44
2023-02-05T04:58:44.824Z,0.45
2023-02-05T05:01:15.419Z,0.48
2023-02-05T05:03:44.442Z,0.46
2023-02-05T05:06:14.924Z,0.42
2023-02-05T05:08:44.173Z,0.45
2023-02-05T05:11:14.848Z,0.43
2023-02-05T05:13:44.344Z,0.41
2023-02-05T05:16:15.630Z,0.40
2023-02-05T05:18:45.865Z,0.36
2023-02-05T05:21:17.855Z,0.35
2023-02-05T05:23:47.525Z,0.29
2023-02-05T05:26:16.515Z,0.31
2023-02-05T05:28:45.181Z,0.20
2023-02-05T05:31:17.717Z,0.22
2023-02-05T05:33:46.733Z,0.26
2023-02-05T05:36:18.276Z,0.25
2023-02-05T05:38:46.988Z,0.25
2023-02-05T05:41:38.144Z,0.28
2023-02-05T05:44:07.876Z,0.25
2023-02-05T05:46:37.850Z,0.16
2023-02-05T05:49:08.435Z,0.06
2023-02-05T05:51:38.660Z,0.03
2023-02-05T05:54:07.455Z,0.08
2023-02-05T05:56:36.643Z,0.13
2023-02-05T05:59:07.471Z,0.15
2023-02-05T06:01:37.264Z,0.13
2023-02-05T06:04:05.783Z,0.11
2023-02-05T06:06:34.553Z,0.01
2023-02-05T06:09:14.980Z,-0.02
2023-02-05T06:11:43.651Z,-0.08
2023-02-05T06:14:12.282Z,-0.11
2023-02-05T06:16:42.083Z,-0.12
2023-02-05T06:19:10.670Z,-0.10
2023-02-05T06:21:44.090Z,-0.06
2023-02-05T06:24:12.847Z,-0.12
2023-02-05T06:26:48.940Z,-0.21
2023-02-05T06:29:17.702Z,-0.25
2023-02-05T06:31:47.500Z,-0.22
2023-02-05T06:34:16.220Z,-0.16
2023-02-05T06:36:44.838Z,-0.12
2023-02-05T06:39:13.432Z,-0.09
2023-02-05T06:41:42.240Z,-0.08
2023-02-05T06:44:12.621Z,-0.08
2023-02-05T06:46:41.449Z,-0.03
2023-02-05T06:49:10.159Z,0.01
2023-02-05T06:51:39.829Z,-0.03
2023-02-05T06:54:08.415Z,-0.05
2023-02-05T06:56:36.983Z,-0.02
2023-02-05T06:59:06.531Z,0.03
2023-02-05T07:01:36.630Z,0.04
2023-02-05T07:04:05.421Z,0.01
2023-02-05T07:06:36.020Z,-0.04
2023-02-05T07:09:06.724Z,-0.10
2023-02-05T07:11:35.853Z,-0.15
2023-02-05T07:14:05.704Z,-0.18
2023-02-05T07:16:35.823Z,-0.14
2023-02-05T07:19:04.518Z,-0.19
2023-02-05T07:21:34.108Z,-0.20
2023-02-05T07:24:03.442Z,-0.20
2023-02-05T07:26:33.155Z,-0.13
2023-02-05T07:29:02.114Z,-0.12
2023-02-05T07:31:30.791Z,-0.16
2023-02-05T07:34:00.870Z,-0.16
2023-02-05T07:36:29.700Z,-0.13
2023-02-05T07:38:59.875Z,-0.13
2023-02-05T07:41:28.547Z,-0.14
2023-02-05T07:43:57.220Z,-0.18
2023-02-05T07:46:25.764Z,-0.23
2023-02-05T07:48:56.607Z,-0.29
2023-02-05T07:51:26.894Z,-0.30
2023-02-05T07:53:55.513Z,-0.26
2023-02-05T07:56:26.131Z,-0.24
2023-02-05T07:58:55.771Z,-0.17
2023-02-05T08:01:25.416Z,-0.14
2023-02-05T08:03:54.168Z,-0.12
2023-02-05T08:06:22.753Z,-0.13
2023-02-05T08:08:52.825Z,-0.15
2023-02-05T08:11:21.534Z,-0.12
2023-02-05T08:13:50.223Z,-0.12
2023-02-05T08:16:19.315Z,-0.11
2023-02-05T08:18:50.810Z,-0.09
2023-02-05T08:21:22.109Z,-0.06
2023-02-05T08:23:57.893Z,-0.06
2023-02-05T08:26:26.531Z,-0.01
2023-02-05T08:28:56.867Z,0.06
2023-02-05T08:31:28.252Z,0.14
2023-02-05T08:33:58.135Z,0.23
2023-02-05T08:36:27.128Z,0.32
2023-02-05T08:38:58.329Z,0.37
2023-02-05T08:41:27.245Z,0.37
2023-02-05T08:43:55.896Z,0.41
2023-02-05T08:46:31.608Z,0.35
2023-02-05T08:49:05.976Z,0.34
2023-02-05T08:51:36.016Z,0.37
2023-02-05T08:54:09.682Z,0.47
2023-02-05T08:57:12.106Z,0.53
2023-02-05T08:59:40.925Z,0.63
2023-02-05T09:02:16.357Z,0.82
2023-02-05T09:04:45.059Z,0.97
2023-02-05T09:07:13.661Z,1.12
2023-02-05T09:09:43.878Z,1.36
2023-02-05T09:12:12.516Z,1.46
2023-02-05T09:14:41.270Z,1.57
2023-02-05T09:17:14.779Z,1.48
2023-02-05T09:19:43.852Z,1.54
2023-02-05T09:22:12.434Z,1.61
2023-02-05T09:24:42.653Z,1.62
2023-02-05T09:27:14.448Z,1.72
2023-02-05T09:29:43.819Z,1.76
2023-02-05T09:32:12.857Z,1.86
2023-02-05T09:34:41.561Z,1.94
2023-02-05T09:37:10.159Z,2.17
2023-02-05T09:42:38.503Z,2.65
2023-02-05T09:45:19.792Z,2.54
2023-02-05T09:47:56.051Z,2.61
2023-02-05T09:50:30.237Z,2.69
2023-02-05T09:53:06.055Z,2.70
2023-02-05T09:55:37.824Z,2.72
2023-02-05T09:58:13.470Z,3.03
2023-02-05T10:00:48.247Z,3.14
2023-02-05T10:03:26.041Z,3.25
2023-02-05T10:06:11.791Z,3.48
2023-02-05T10:08:48.937Z,3.62
2023-02-05T10:11:25.067Z,4.04
2023-02-05T10:14:06.901Z,4.13
2023-02-05T10:16:50.455Z,4.02
2023-02-05T10:19:40.578Z,4.06
2023-02-05T10:22:17.288Z,4.07
2023-02-05T10:25:12.941Z,4.02
2023-02-05T10:27:55.562Z,3.92
2023-02-05T10:30:39.752Z,3.61
2023-02-05T10:33:18.686Z,3.53
2023-02-05T10:35:52.829Z,3.48
2023-02-05T10:38:25.192Z,3.45
2023-02-05T10:41:00.490Z,3.67
2023-02-05T10:43:33.045Z,3.82
2023-02-05T10:46:03.402Z,3.90
2023-02-05T10:48:42.880Z,4.29
2023-02-05T10:51:15.459Z,4.52
2023-02-05T10:53:45.227Z,4.72
2023-02-05T10:56:19.037Z,4.74
2023-02-05T10:58:53.669Z,4.78
2023-02-05T11:01:26.702Z,4.82
2023-02-05T11:04:01.487Z,4.92
2023-02-05T11:06:34.210Z,5.04
2023-02-05T11:09:02.982Z,5.03
2023-02-05T11:11:33.668Z,4.74
2023-02-05T11:14:06.406Z,4.62
2023-02-05T11:16:43.646Z,4.54
2023-02-05T11:19:23.559Z,4.69
2023-02-05T11:21:55.507Z,4.92
2023-02-05T11:24:27.359Z,5.09
2023-02-05T11:27:29.260Z,5.00
2023-02-05T11:30:00.227Z,4.98
2023-02-05T11:32:37.701Z,5.08
2023-02-05T11:35:23.561Z,5.19
2023-02-05T11:38:01.820Z,5.27
2023-02-05T11:40:33.342Z,5.45
2023-02-05T11:43:06.423Z,5.80
2023-02-05T11:45:38.965Z,5.84
2023-02-05T11:48:27.452Z,6.03
2023-02-05T11:50:56.436Z,6.40
2023-02-05T11:53:25.578Z,6.69
2023-02-05T11:55:57.309Z,6.82
2023-02-05T11:58:36.700Z,6.85
2023-02-05T12:01:22.007Z,7.10
2023-02-05T12:04:00.662Z,6.88
2023-02-05T12:06:36.989Z,6.74
2023-02-05T12:09:07.333Z,7.06
2023-02-05T12:12:07.121Z,7.75
2023-02-05T12:14:43.993Z,8.36
2023-02-05T12:17:34.127Z,8.79
2023-02-05T12:20:14.179Z,8.59
2023-02-05T12:23:04.817Z,8.79
2023-02-05T12:25:44.360Z,8.68
2023-02-05T12:28:27.038Z,8.77
2023-02-05T12:31:09.114Z,8.58
2023-02-05T12:34:10.174Z,9.20
2023-02-05T12:37:03.084Z,9.28
2023-02-05T12:39:42.668Z,9.39
2023-02-05T12:42:23.076Z,9.44
2023-02-05T12:45:06.077Z,9.35
2023-02-05T12:47:59.825Z,9.34
2023-02-05T12:50:51.238Z,9.26
2023-02-05T12:53:38.713Z,9.48
2023-02-05T12:56:34.427Z,9.30
2023-02-05T12:59:11.342Z,9.31
2023-02-05T13:01:44.660Z,8.89
2023-02-05T13:04:24.699Z,9.05
2023-02-05T13:07:00.132Z,9.32
2023-02-05T13:09:43.125Z,9.46
2023-02-05T13:12:16.287Z,9.11
2023-02-05T13:14:54.724Z,9.14
2023-02-05T13:17:26.878Z,9.10
2023-02-05T13:20:00.426Z,9.09
2023-02-05T13:22:54.602Z,9.19
2023-02-05T13:25:48.957Z,9.21
2023-02-05T13:28:43.223Z,9.12
2023-02-05T13:31:22.766Z,9.02
2023-02-05T13:33:53.285Z,9.12
2023-02-05T13:36:50.326Z,9.29
2023-02-05T13:39:52.998Z,9.26
2023-02-05T13:42:50.212Z,9.62
2023-02-05T13:45:39.558Z,9.77
2023-02-05T13:48:26.839Z,9.79
2023-02-05T13:51:14.996Z,9.98
2023-02-05T13:53:58.638Z,10.16
2023-02-05T13:56:43.478Z,10.09
2023-02-05T13:59:18.991Z,10.06
2023-02-05T14:01:54.241Z,10.07
2023-02-05T14:04:26.968Z,9.80
2023-02-05T14:07:02.032Z,9.55
2023-02-05T14:09:36.931Z,9.62
2023-02-05T14:12:09.526Z,9.79
2023-02-05T14:14:41.314Z,9.92
2023-02-05T14:17:49.497Z,10.02
2023-02-05T14:20:36.962Z,10.11
2023-02-05T14:23:15.970Z,10.34
2023-02-05T14:26:11.802Z,10.50
2023-02-05T14:28:49.763Z,10.78
2023-02-05T14:31:47.808Z,10.86
2023-02-05T14:34:56.514Z,10.74
2023-02-05T14:37:34.066Z,10.66
2023-02-05T14:40:22.935Z,10.40
2023-02-05T14:42:57.128Z,10.18
2023-02-05T14:45:31.133Z,10.17
2023-02-05T14:48:02.615Z,10.16
2023-02-05T14:50:31.852Z,9.92
2023-02-05T14:53:03.325Z,9.98
2023-02-05T14:55:40.017Z,10.01
2023-02-05T14:58:23.183Z,9.77
2023-02-05T15:00:53.417Z,9.67
2023-02-05T15:03:38.944Z,9.64
2023-02-05T15:06:15.402Z,9.66
2023-02-05T15:08:50.669Z,9.71
2023-02-05T15:11:28.312Z,10.09
2023-02-05T15:14:35.591Z,10.81
2023-02-05T15:17:41.536Z,12.04
2023-02-05T15:20:25.491Z,12.13
2023-02-05T15:23:04.551Z,11.59
2023-02-05T15:25:41.138Z,11.78
2023-02-05T15:28:20.004Z,12.94
2023-02-05T15:30:56.061Z,13.19
2023-02-05T15:33:34.563Z,13.98
2023-02-05T15:36:12.087Z,15.11
2023-02-05T15:38:48.045Z,14.88
2023-02-05T15:41:17.704Z,14.77
2023-02-05T15:44:00.679Z,14.14
2023-02-05T15:46:31.331Z,13.32
2023-02-05T15:49:01.367Z,13.07
2023-02-05T15:51:34.884Z,12.20
2023-02-05T15:54:05.857Z,11.65
2023-02-05T15:56:38.228Z,11.35
2023-02-05T15:59:13.995Z,10.61
2023-02-05T16:01:47.014Z,10.32
2023-02-05T16:04:20.094Z,9.58
2023-02-05T16:06:50.828Z,9.08
2023-02-05T16:09:21.257Z,8.78
2023-02-05T16:11:50.668Z,8.55
2023-02-05T16:14:21.101Z,8.18
2023-02-05T16:17:01.156Z,8.04
2023-02-05T16:19:36.547Z,7.97
2023-02-05T16:22:30.606Z,7.92
2023-02-05T16:25:03.714Z,7.73
2023-02-05T16:27:39.666Z,7.66
2023-02-05T16:30:17.605Z,7.67
2023-02-05T16:32:46.448Z,7.52
2023-02-05T16:35:24.072Z,7.45
2023-02-05T16:37:54.331Z,7.38
2023-02-05T16:40:36.114Z,7.37
2023-02-05T16:43:28.803Z,7.25
2023-02-05T16:46:26.408Z,7.19
2023-02-05T16:48:57.620Z,7.10
2023-02-05T16:51:37.200Z,7.05
2023-02-05T16:54:29.959Z,6.91
2023-02-05T16:57:03.605Z,6.86
2023-02-05T16:59:35.610Z,6.79
2023-02-05T17:02:04.805Z,6.72
2023-02-05T17:04:37.155Z,6.62
2023-02-05T17:07:17.205Z,6.55
2023-02-05T17:09:47.428Z,6.53
2023-02-05T17:12:40.311Z,6.51
2023-02-05T17:15:28.479Z,6.44
2023-02-05T17:17:59.733Z,6.38
2023-02-05T17:20:30.072Z,6.33
2023-02-05T17:23:15.655Z,6.29
2023-02-05T17:25:54.802Z,6.18
2023-02-05T17:28:26.386Z,6.12
2023-02-05T17:30:58.000Z,6.13
2023-02-05T17:33:29.019Z,6.01
2023-02-05T17:35:57.701Z,6.07
2023-02-05T17:38:26.104Z,6.01
2023-02-05T17:41:16.357Z,5.90
2023-02-05T17:43:45.026Z,5.82
2023-02-05T17:46:15.454Z,5.80
2023-02-05T17:48:44.836Z,5.75
2023-02-05T17:51:20.669Z,5.68
2023-02-05T17:53:49.689Z,5.64
2023-02-05T17:56:21.547Z,5.62
2023-02-05T17:58:51.944Z,5.55
2023-02-05T18:01:25.244Z,5.52
2023-02-05T18:03:54.150Z,5.51
2023-02-05T18:06:22.777Z,5.47
2023-02-05T18:08:51.291Z,5.54
2023-02-05T18:11:21.455Z,5.44
2023-02-05T18:13:49.988Z,5.41
2023-02-05T18:16:19.077Z,5.42
2023-02-05T18:18:47.865Z,5.38
2023-02-05T18:21:16.936Z,5.28
2023-02-05T18:23:45.521Z,5.25
2023-02-05T18:26:14.275Z,5.20
2023-02-05T18:28:45.710Z,5.20
2023-02-05T18:31:15.723Z,5.14
2023-02-05T18:33:44.694Z,5.15
2023-02-05T18:36:14.666Z,5.10
2023-02-05T18:38:44.390Z,5.07
2023-02-05T18:41:14.898Z,5.03
2023-02-05T18:43:46.299Z,4.99
2023-02-05T18:46:17.772Z,4.94
2023-02-05T18:48:46.549Z,4.95
2023-02-05T18:51:18.154Z,4.91
2023-02-05T18:53:47.889Z,4.87
2023-02-05T18:56:18.893Z,4.84
2023-02-05T18:58:54.324Z,4.78
2023-02-05T19:01:23.177Z,4.71
2023-02-05T19:03:55.324Z,4.69
2023-02-05T19:06:24.186Z,4.71
2023-02-05T19:08:53.047Z,4.70
2023-02-05T19:11:24.311Z,4.71
2023-02-05T19:13:59.433Z,4.66
2023-02-05T19:16:29.871Z,4.63
2023-02-05T19:18:59.241Z,4.57
2023-02-05T19:21:30.982Z,4.49
2023-02-05T19:24:05.665Z,4.47
2023-02-05T19:26:36.465Z,4.51
2023-02-05T19:29:09.421Z,4.52
2023-02-05T19:31:38.689Z,4.53
2023-02-05T19:34:08.150Z,4.57
2023-02-05T19:36:37.465Z,4.57
2023-02-05T19:39:08.720Z,4.54
2023-02-05T19:41:38.831Z,4.46
2023-02-05T19:44:10.480Z,4.41
2023-02-05T19:46:42.248Z,4.35
2023-02-05T19:49:14.785Z,4.34
2023-02-05T19:51:47.084Z,4.21
2023-02-05T19:54:16.210Z,4.20
2023-02-05T19:56:45.244Z,4.23
2023-02-05T19:59:17.135Z,4.18
2023-02-05T20:01:46.903Z,4.15
2023-02-05T20:04:17.833Z,4.09
2023-02-05T20:06:48.428Z,4.08
2023-02-05T20:09:18.640Z,4.10
2023-02-05T20:11:49.192Z,4.11
2023-02-05T20:14:19.655Z,4.11
2023-02-05T20:16:48.889Z,4.09
2023-02-05T20:19:18.183Z,3.97
2023-02-05T20:21:48.517Z,4.00
2023-02-05T20:24:17.592Z,3.98
2023-02-05T20:26:48.636Z,4.00
2023-02-05T20:29:36.351Z,3.99
2023-02-05T20:32:05.808Z,3.92
2023-02-05T20:34:36.381Z,3.83
2023-02-05T20:37:06.823Z,3.79
2023-02-05T20:39:39.866Z,3.77
2023-02-05T20:42:08.656Z,3.68
2023-02-05T20:44:38.970Z,3.70
2023-02-05T20:47:09.510Z,3.66
2023-02-05T20:49:40.276Z,3.61
2023-02-05T20:52:09.362Z,3.59
2023-02-05T20:54:38.418Z,3.62
2023-02-05T20:57:08.008Z,3.61
2023-02-05T20:59:39.612Z,3.61
2023-02-05T21:02:09.042Z,3.53
2023-02-05T21:04:38.522Z,3.40
2023-02-05T21:07:07.006Z,3.33
2023-02-05T21:09:35.703Z,3.32
2023-02-05T21:12:05.705Z,3.31
2023-02-05T21:14:34.329Z,3.34
2023-02-05T21:17:05.082Z,3.22
2023-02-05T21:19:33.632Z,3.13
2023-02-05T21:22:02.285Z,3.09
2023-02-05T21:24:30.880Z,3.12
2023-02-05T21:26:59.761Z,3.18
2023-02-05T21:29:29.378Z,3.13
2023-02-05T21:31:57.966Z,3.00
2023-02-05T21:34:29.724Z,2.91
2023-02-05T21:36:58.949Z,2.88
2023-02-05T21:39:28.567Z,2.83
2023-02-05T21:41:57.346Z,2.78
2023-02-05T21:44:25.990Z,2.74
2023-02-05T21:46:55.487Z,2.77
2023-02-05T21:49:24.390Z,2.84
2023-02-05T21:51:54.791Z,2.83
2023-02-05T21:54:25.945Z,2.83
2023-02-05T21:56:55.035Z,2.76
2023-02-05T21:59:24.484Z,2.80
2023-02-05T22:01:54.584Z,2.83
2023-02-05T22:04:23.188Z,2.84
2023-02-05T22:06:54.076Z,2.87
2023-02-05T22:09:22.700Z,2.84
2023-02-05T22:11:52.615Z,2.79
2023-02-05T22:14:21.646Z,2.74
2023-02-05T22:16:51.216Z,2.64
2023-02-05T22:19:19.923Z,2.57
2023-02-05T22:21:48.525Z,2.48
2023-02-05T22:24:20.685Z,2.58
2023-02-05T22:26:49.496Z,2.65
2023-02-05T22:29:20.575Z,2.58
2023-02-05T22:31:52.799Z,2.47
2023-02-05T22:34:22.419Z,2.51
2023-02-05T22:36:51.216Z,2.52
2023-02-05T22:39:21.366Z,2.60
2023-02-05T22:41:49.977Z,2.64
2023-02-05T22:44:19.945Z,2.67
2023-02-05T22:46:49.048Z,2.67
2023-02-05T22:49:17.655Z,2.62
2023-02-05T22:51:46.814Z,2.63
2023-02-05T22:54:17.326Z,2.63
2023-02-05T22:56:47.498Z,2.61
2023-02-05T22:59:17.251Z,2.61
2023-02-05T23:01:45.806Z,2.52
2023-02-05T23:04:14.257Z,2.52
2023-02-05T23:06:45.454Z,2.29
2023-02-05T23:09:17.902Z,2.33
2023-02-05T23:11:48.811Z,2.37
2023-02-05T23:14:19.159Z,2.42
2023-02-05T23:16:49.134Z,2.41
2023-02-05T23:19:20.738Z,2.31
2023-02-05T23:21:50.894Z,2.32
2023-02-05T23:24:23.943Z,2.22
2023-02-05T23:26:55.119Z,2.23
2023-02-05T23:29:24.090Z,2.26
2023-02-05T23:31:53.600Z,2.24
2023-02-05T23:34:22.430Z,2.24
2023-02-05T23:36:51.050Z,2.16
2023-02-05T23:39:19.676Z,2.11
2023-02-05T23:41:48.683Z,2.11
2023-02-05T23:44:20.315Z,2.00
2023-02-05T23:46:50.107Z,2.03
2023-02-05T23:49:21.548Z,1.93
2023-02-05T23:51:50.314Z,1.97
2023-02-05T23:54:19.074Z,1.97
2023-02-05T23:56:48.219Z,2.03
2023-02-05T23:59:18.813Z,2.09
